Time;durP1;ratioP1;P1;durP2;ratioP2;P2;SDS_P1;SDS_P2;PMS_P1;PMS_P2;Temp;Humidity;BMP_temperature;BMP_pressure;BME280_temperature;BME280_humidity;BME280_pressure;Samples;Min_cycle;Max_cycle;Signal;HPM_P1;HPM_P2
2022/04/12 00:00:21;;;;;;;9.35;4.78;;;8.90;88.50;;;;;;6113035;23;19998;-81
2022/04/12 05:03:56;;;;;;;11.98;6.10;;;5.70;98.80;;;;;;6148066;23;20045;-82
2022/04/12 05:06:22;;;;;;;10.48;6.00;;;5.70;98.70;;;;;;6140249;23;19998;-82
2022/04/12 05:08:48;;;;;;;20.50;6.90;;;5.80;98.90;;;;;;6119325;23;20044;-81
2022/04/12 05:11:14;;;;;;;12.38;6.22;;;5.80;98.80;;;;;;6108855;23;20069;-82
2022/04/12 05:13:40;;;;;;;14.77;6.45;;;5.90;98.70;;;;;;6100861;23;20029;-81
2022/04/12 05:16:05;;;;;;;13.77;7.20;;;6.00;98.70;;;;;;6126018;23;20049;-80
2022/04/12 05:18:31;;;;;;;11.27;5.97;;;6.00;98.30;;;;;;6102038;23;20180;-83
2022/04/12 05:20:57;;;;;;;12.63;6.18;;;6.00;98.20;;;;;;6127970;23;20017;-81
2022/04/12 05:23:23;;;;;;;12.35;6.60;;;6.00;98.20;;;;;;6126284;23;20329;-81
2022/04/12 05:25:53;;;;;;;14.00;6.25;;;6.10;98.20;;;;;;6076551;23;20041;-81
2022/04/12 05:28:20;;;;;;;10.88;6.28;;;6.10;98.10;;;;;;6079523;23;20013;-82
2022/04/12 05:30:46;;;;;;;12.02;6.55;;;6.20;98.00;;;;;;6135663;23;20010;-82
2022/04/12 05:33:12;;;;;;;12.23;6.43;;;6.20;97.80;;;;;;6135966;23;20005;-82
2022/04/12 05:35:40;;;;;;;15.68;7.55;;;6.20;97.80;;;;;;6139582;23;20005;-81
2022/04/12 05:38:06;;;;;;;10.95;6.43;;;6.30;97.80;;;;;;6136335;23;20224;-82
2022/04/12 05:40:35;;;;;;;12.00;5.93;;;6.40;97.60;;;;;;6109870;23;20033;-84
2022/04/12 05:43:01;;;;;;;10.43;6.18;;;6.60;97.30;;;;;;6135661;23;20006;-81
2022/04/12 05:45:28;;;;;;;15.50;6.05;;;6.70;97.00;;;;;;6134507;23;20304;-81
2022/04/12 05:47:54;;;;;;;11.35;6.15;;;6.90;96.50;;;;;;6134523;23;20013;-81
2022/04/12 05:53:43;;;;;;;15.20;6.15;;;7.00;96.00;;;;;;6109601;23;20272;-81
2022/04/12 05:56:09;;;;;;;10.75;5.90;;;7.30;95.90;;;;;;6136352;23;20002;-82
2022/04/12 05:58:35;;;;;;;10.95;6.22;;;7.40;95.60;;;;;;6109251;23;20013;-82
2022/04/12 06:01:02;;;;;;;13.88;6.93;;;7.50;95.40;;;;;;6133219;23;20025;-82
2022/04/12 06:03:28;;;;;;;14.23;6.45;;;7.60;95.10;;;;;;6134342;23;20052;-82
2022/04/12 06:05:54;;;;;;;15.13;6.60;;;7.70;94.80;;;;;;6140313;23;20001;-82
2022/04/12 06:08:20;;;;;;;9.85;5.45;;;7.80;94.50;;;;;;6163811;23;20006;-81
2022/04/12 06:10:48;;;;;;;16.45;6.80;;;8.00;94.20;;;;;;6103787;23;20324;-82
2022/04/12 06:13:14;;;;;;;13.32;6.70;;;8.00;94.00;;;;;;6104616;23;20007;-82
2022/04/12 06:15:40;;;;;;;10.85;6.15;;;8.20;93.60;;;;;;6097800;23;20003;-84
2022/04/12 06:18:08;;;;;;;8.55;5.13;;;8.40;93.20;;;;;;6076302;23;20007;-83
2022/04/12 06:20:35;;;;;;;10.90;5.55;;;8.60;93.00;;;;;;6054448;23;20010;-82
2022/04/12 06:23:01;;;;;;;11.17;6.70;;;8.70;92.70;;;;;;6075604;23;20018;-82
2022/04/12 06:25:27;;;;;;;14.05;7.20;;;8.90;92.40;;;;;;6079918;23;20010;-84
2022/04/12 06:27:53;;;;;;;14.15;6.80;;;9.00;92.00;;;;;;6103709;23;20026;-83
2022/04/12 06:30:21;;;;;;;11.52;6.63;;;9.10;91.80;;;;;;6106719;23;20112;-82
2022/04/12 06:32:47;;;;;;;17.55;7.72;;;9.30;91.60;;;;;;6108439;23;19998;-82
2022/04/12 06:35:15;;;;;;;14.68;7.35;;;9.30;91.40;;;;;;6133571;23;20005;-83
2022/04/12 06:37:52;;;;;;;15.20;6.70;;;9.40;91.30;;;;;;6085781;23;20108;-83
2022/04/12 06:40:27;;;;;;;16.30;7.05;;;9.50;91.00;;;;;;6111853;23;20012;-83
2022/04/12 06:42:53;;;;;;;12.45;7.75;;;9.60;90.90;;;;;;6138865;23;20017;-84
2022/04/12 06:45:20;;;;;;;11.95;6.18;;;9.70;90.80;;;;;;6164111;23;20017;-82
2022/04/12 06:48:05;;;;;;;12.05;7.07;;;9.80;90.50;;;;;;6163772;23;20203;-82
2022/04/12 06:50:34;;;;;;;14.88;7.00;;;10.00;90.20;;;;;;6164264;23;20009;-83
2022/04/12 06:53:28;;;;;;;9.75;6.20;;;10.10;89.50;;;;;;6163606;23;20010;-83
2022/04/12 06:55:54;;;;;;;11.13;6.78;;;10.30;89.20;;;;;;6138120;23;20056;-85
2022/04/12 06:58:29;;;;;;;10.65;6.60;;;10.50;89.00;;;;;;6164285;23;20190;-83
2022/04/12 07:01:19;;;;;;;13.60;6.70;;;10.60;87.40;;;;;;6148425;23;20024;-84
2022/04/12 07:03:44;;;;;;;10.38;5.95;;;10.80;87.00;;;;;;6169890;23;20017;-86
2022/04/12 07:06:10;;;;;;;10.10;6.38;;;11.00;86.60;;;;;;6169548;23;20198;-84
2022/04/12 07:08:36;;;;;;;11.75;6.53;;;11.10;85.70;;;;;;6145304;23;20009;-84
2022/04/12 07:11:03;;;;;;;13.07;7.00;;;11.20;85.30;;;;;;6170196;23;20028;-83
2022/04/12 07:13:42;;;;;;;11.60;6.18;;;11.40;85.20;;;;;;6170421;23;20058;-85
2022/04/12 07:16:08;;;;;;;11.45;6.57;;;11.40;85.20;;;;;;6196179;23;20020;-81
2022/04/12 07:34:38;;;;;;;;;;;;;;;;;;;;;
2022/04/12 07:38:20;;;;;;;13.73;6.22;;;12.30;82.50;;;;;;6109024;23;20200;-81
2022/04/12 07:49:18;;;;;;;11.93;5.78;;;13.00;79.70;;;;;;6115630;23;20080;-83
2022/04/12 07:55:49;;;;;;;13.13;6.30;;;13.60;77.70;;;;;;6133466;23;20045;-82
2022/04/12 07:58:25;;;;;;;8.85;5.18;;;13.60;77.50;;;;;;6111530;23;20005;-83
2022/04/12 08:01:07;;;;;;;9.82;4.80;;;13.80;77.00;;;;;;6107400;23;20022;-82
2022/04/12 08:03:44;;;;;;;10.77;4.82;;;14.00;75.80;;;;;;6102711;23;20017;-80
2022/04/12 08:06:10;;;;;;;8.13;4.90;;;14.20;75.10;;;;;;6129369;23;20107;-82
2022/04/12 08:08:45;;;;;;;8.52;5.43;;;14.50;75.50;;;;;;6223359;23;20009;-82
2022/04/12 08:11:11;;;;;;;8.25;4.90;;;14.70;74.90;;;;;;6173704;23;20023;-81
2022/04/12 08:13:37;;;;;;;8.27;4.47;;;14.90;72.90;;;;;;6197939;23;20051;-82
2022/04/12 08:16:03;;;;;;;7.75;4.45;;;15.10;73.10;;;;;;6222625;23;20004;-82
2022/04/12 08:18:31;;;;;;;7.70;4.85;;;15.30;73.10;;;;;;6174191;23;19993;-81
2022/04/12 08:20:58;;;;;;;8.93;5.00;;;15.50;72.40;;;;;;6196801;23;20269;-82
2022/04/12 08:23:24;;;;;;;9.68;5.18;;;15.70;72.30;;;;;;6173291;23;20000;-81
2022/04/12 08:25:50;;;;;;;8.77;4.35;;;15.70;72.40;;;;;;6198185;23;20361;-81
2022/04/12 08:28:17;;;;;;;11.60;4.80;;;15.90;72.10;;;;;;6223480;23;20116;-81
2022/04/12 08:30:42;;;;;;;8.93;4.38;;;16.10;71.40;;;;;;6223179;22;19996;-80
2022/04/12 08:33:15;;;;;;;9.77;5.03;;;16.20;71.40;;;;;;6249734;23;20016;-81
2022/04/12 08:35:41;;;;;;;8.63;4.90;;;16.20;70.90;;;;;;6223798;23;20012;-81
2022/04/12 08:38:07;;;;;;;8.55;4.90;;;16.00;70.80;;;;;;6249238;23;20078;-81
2022/04/12 08:40:33;;;;;;;12.02;5.13;;;16.00;71.00;;;;;;6226287;23;20316;-81
2022/04/12 08:42:59;;;;;;;8.90;4.82;;;16.20;70.90;;;;;;6249077;23;20230;-81
2022/04/12 08:45:26;;;;;;;11.23;4.97;;;16.40;71.50;;;;;;6221902;22;20016;-80
2022/04/12 08:47:52;;;;;;;10.73;4.55;;;16.50;70.00;;;;;;6223421;23;20008;-80
2022/04/12 08:50:19;;;;;;;9.27;5.00;;;16.80;70.20;;;;;;6199143;23;20050;-82
2022/04/12 08:52:46;;;;;;;11.80;5.67;;;17.10;69.40;;;;;;6229189;23;20000;-81
2022/04/12 08:55:13;;;;;;;9.15;5.15;;;17.20;69.20;;;;;;6235965;23;20001;-80
2022/04/12 08:57:41;;;;;;;10.27;5.10;;;17.20;68.00;;;;;;6237871;23;20044;-82
2022/04/12 09:00:07;;;;;;;10.82;5.05;;;17.30;67.90;;;;;;6238542;22;20008;-84
2022/04/12 09:02:34;;;;;;;13.05;5.53;;;17.40;68.10;;;;;;6239212;23;20278;-84
2022/04/12 09:05:03;;;;;;;11.43;5.05;;;17.50;67.50;;;;;;6201234;23;20009;-85
2022/04/12 09:07:45;;;;;;;8.95;4.95;;;17.70;68.20;;;;;;6223811;23;19997;-85
2022/04/12 09:10:36;;;;;;;8.15;4.68;;;17.80;66.20;;;;;;6225785;23;20095;-84
2022/04/12 09:13:14;;;;;;;11.00;4.30;;;17.70;66.00;;;;;;6200665;23;19996;-83
2022/04/12 09:15:46;;;;;;;13.10;5.15;;;17.50;66.50;;;;;;6218820;22;20023;-82
2022/04/12 09:18:12;;;;;;;8.80;4.68;;;17.50;66.80;;;;;;6225973;23;20208;-82
2022/04/12 09:20:38;;;;;;;7.57;4.22;;;17.30;66.70;;;;;;6224212;23;19993;-81
2022/04/12 09:23:14;;;;;;;9.98;4.10;;;17.30;66.70;;;;;;6224141;23;20004;-83
2022/04/12 09:25:53;;;;;;;8.15;3.80;;;17.40;66.00;;;;;;6223701;23;20016;-83
2022/04/12 09:28:19;;;;;;;9.60;3.85;;;17.40;66.30;;;;;;6224405;23;20092;-82
2022/04/12 09:30:45;;;;;;;6.68;3.30;;;17.60;65.70;;;;;;6223973;23;20278;-81
2022/04/12 09:33:11;;;;;;;9.23;3.67;;;17.90;65.50;;;;;;6223295;23;20119;-79
2022/04/12 09:44:42;;;;;;;9.38;3.50;;;18.70;64.10;;;;;;6221561;23;20103;-80
2022/04/12 09:47:12;;;;;;;8.35;3.67;;;18.80;64.10;;;;;;6223332;23;20028;-80
2022/04/12 09:49:48;;;;;;;7.60;3.50;;;18.80;62.00;;;;;;6222911;23;20016;-82
2022/04/12 09:52:14;;;;;;;7.18;3.97;;;19.00;63.50;;;;;;6197888;23;20004;-81
2022/04/12 09:54:39;;;;;;;7.75;3.08;;;19.20;63.50;;;;;;6223752;23;19999;-80
2022/04/12 09:57:07;;;;;;;8.50;3.15;;;19.40;63.40;;;;;;6197060;23;20015;-82
2022/04/12 10:02:33;;;;;;;8.32;3.70;;;19.90;61.40;;;;;;6181782;23;20317;-80
2022/04/12 10:05:03;;;;;;;6.82;3.13;;;20.10;60.70;;;;;;6223907;23;20095;-80
2022/04/12 10:07:33;;;;;;;9.07;3.50;;;20.10;61.30;;;;;;6197631;23;20023;-80
2022/04/12 10:10:03;;;;;;;6.88;3.25;;;20.20;60.00;;;;;;6196928;23;20004;-80
2022/04/12 10:12:30;;;;;;;8.05;2.85;;;20.20;61.10;;;;;;6197351;23;20004;-81
2022/04/12 10:14:56;;;;;;;5.00;2.67;;;20.20;61.60;;;;;;6196547;23;20286;-80
2022/04/12 10:17:22;;;;;;;5.25;2.90;;;20.20;60.40;;;;;;6221805;23;20016;-81
2022/04/12 10:19:49;;;;;;;7.47;3.20;;;20.20;59.90;;;;;;6196711;23;20008;-82
2022/04/12 10:22:15;;;;;;;6.05;2.50;;;20.20;61.00;;;;;;6223930;23;20005;-81
2022/04/12 10:24:40;;;;;;;6.72;2.42;;;20.30;59.30;;;;;;6223810;23;20187;-78
2022/04/12 10:27:07;;;;;;;4.45;2.38;;;20.40;58.80;;;;;;6222811;23;20068;-80
2022/04/12 10:29:33;;;;;;;4.22;2.13;;;20.60;57.90;;;;;;6172916;23;20090;-78
2022/04/12 10:32:04;;;;;;;5.95;2.33;;;20.50;58.10;;;;;;6195741;23;20063;-80
2022/04/12 10:34:31;;;;;;;4.18;1.92;;;20.70;57.00;;;;;;6197600;23;20063;-80
2022/04/12 10:37:06;;;;;;;3.35;1.70;;;20.80;57.20;;;;;;6223164;23;20008;-80
2022/04/12 10:39:46;;;;;;;3.92;1.60;;;21.10;56.70;;;;;;6223348;23;20282;-79
2022/04/12 10:42:18;;;;;;;4.60;1.60;;;21.30;56.00;;;;;;6223906;23;20103;-80
2022/04/12 10:44:49;;;;;;;3.78;1.45;;;21.50;55.60;;;;;;6196885;23;20020;-81
2022/04/12 10:50:53;;;;;;;3.63;1.42;;;21.90;54.80;;;;;;6196492;23;20008;-79
2022/04/12 10:53:47;;;;;;;3.28;1.50;;;22.00;53.40;;;;;;6222483;23;20099;-81
2022/04/12 10:56:56;;;;;;;3.08;1.38;;;22.10;53.20;;;;;;6172589;23;20000;-81
2022/04/12 11:00:26;;;;;;;2.65;1.02;;;22.30;52.20;;;;;;6196065;23;20194;-80
2022/04/12 11:03:25;;;;;;;5.15;1.35;;;22.70;51.50;;;;;;6136627;23;20018;-80
2022/04/12 11:05:54;;;;;;;2.15;1.02;;;23.00;51.70;;;;;;6131327;23;20056;-80
2022/04/12 11:08:38;;;;;;;3.35;1.30;;;23.30;50.80;;;;;;6132119;23;20005;-82
2022/04/12 11:11:06;;;;;;;3.50;1.20;;;23.40;51.20;;;;;;6130937;23;20012;-80
2022/04/12 11:13:52;;;;;;;3.55;1.20;;;23.70;50.90;;;;;;6112376;23;19994;-81
2022/04/12 11:16:27;;;;;;;3.75;1.10;;;24.30;50.30;;;;;;6130835;23;20061;-81
2022/04/12 11:19:19;;;;;;;4.97;1.60;;;25.00;48.80;;;;;;6132218;23;20052;-82
2022/04/12 11:21:51;;;;;;;3.58;1.30;;;25.70;48.50;;;;;;6132198;23;20006;-82
2022/04/12 11:24:20;;;;;;;3.28;1.20;;;25.40;48.50;;;;;;6109929;23;20009;-81
2022/04/12 11:27:00;;;;;;;2.60;1.10;;;25.30;48.60;;;;;;6133674;23;20240;-81
2022/04/12 11:29:27;;;;;;;3.83;1.25;;;25.30;48.90;;;;;;6134308;23;20005;-81
2022/04/12 11:31:55;;;;;;;6.25;1.50;;;25.40;48.90;;;;;;6132472;23;20041;-81
2022/04/12 11:34:23;;;;;;;2.47;1.00;;;25.80;49.00;;;;;;6134144;23;20080;-79
2022/04/12 11:36:52;;;;;;;2.50;1.08;;;25.70;48.60;;;;;;6147603;23;19997;-82
2022/04/12 11:39:18;;;;;;;5.97;1.35;;;25.90;48.90;;;;;;6183046;23;20027;-81
2022/04/12 11:41:44;;;;;;;2.35;1.30;;;26.30;48.70;;;;;;6173694;23;20036;-81
2022/04/12 11:44:10;;;;;;;3.92;1.45;;;27.10;49.50;;;;;;6197967;23;20080;-81
2022/04/12 11:47:00;;;;;;;3.08;1.40;;;27.40;47.70;;;;;;6198857;23;20012;-82
2022/04/12 11:49:39;;;;;;;2.55;1.10;;;27.40;47.90;;;;;;6200543;23;20322;-83
2022/04/12 12:17:31;;;;;;;5.90;1.40;;;27.90;47.70;;;;;;6152477;23;20067;-83
2022/04/12 12:20:53;;;;;;;3.08;1.02;;;28.40;47.40;;;;;;6133779;23;20070;-83
2022/04/12 12:27:48;;;;;;;;;;;;;;;;;;;;;
2022/04/12 12:33:46;;;;;;;2.47;0.98;;;29.10;46.80;;;;;;6033217;23;20066;-82
2022/04/12 12:36:24;;;;;;;2.28;1.00;;;29.70;46.30;;;;;;6046501;23;20030;-82
2022/04/12 12:42:42;;;;;;;2.35;0.73;;;29.90;46.30;;;;;;6048858;23;20033;-81
2022/04/12 12:45:12;;;;;;;;;;;29.60;45.70;;;;;;6032494;23;20015;-81
2022/04/12 12:48:15;;;;;;;;;;;;;;;;;;;;;
2022/04/12 12:51:08;;;;;;;2.03;0.80;;;29.70;46.30;;;;;;6062987;23;20025;-82
2022/04/12 12:53:40;;;;;;;2.85;0.93;;;29.90;45.50;;;;;;6043646;23;20014;-82
2022/04/12 12:56:22;;;;;;;4.18;1.00;;;30.60;45.20;;;;;;6055056;23;20244;-81
2022/04/12 12:58:48;;;;;;;2.72;1.00;;;30.80;44.70;;;;;;6104037;23;20010;-81
2022/04/12 13:01:15;;;;;;;4.18;1.10;;;30.90;44.90;;;;;;6040511;23;20007;-83
2022/04/12 13:04:18;;;;;;;3.15;0.85;;;30.90;45.00;;;;;;6038903;23;20008;-83
2022/04/12 13:07:15;;;;;;;2.75;0.80;;;31.40;46.30;;;;;;6018386;23;20029;-81
2022/04/12 13:30:51;;;;;;;5.45;1.00;;;32.70;43.30;;;;;;6160099;22;20017;-83
2022/04/12 13:33:17;;;;;;;2.08;0.50;;;33.10;42.30;;;;;;6193398;23;20032;-82
2022/04/12 13:35:44;;;;;;;1.73;0.60;;;32.60;44.70;;;;;;6193566;23;20008;-81
2022/04/12 13:38:10;;;;;;;2.20;0.80;;;32.40;45.00;;;;;;6192861;23;20000;-82
2022/04/12 13:40:36;;;;;;;2.63;0.65;;;32.10;42.40;;;;;;6193326;23;20028;-82
2022/04/12 13:43:04;;;;;;;2.10;0.52;;;31.90;43.10;;;;;;6192633;23;20096;-81
2022/04/12 13:45:29;;;;;;;1.77;0.50;;;32.70;42.30;;;;;;6192243;23;20028;-82
2022/04/12 13:47:55;;;;;;;2.05;0.55;;;33.10;42.50;;;;;;6192925;23;20009;-83
2022/04/12 13:50:21;;;;;;;3.03;0.70;;;33.30;42.10;;;;;;6168114;23;20009;-82
2022/04/12 13:53:06;;;;;;;3.40;0.65;;;32.60;41.80;;;;;;6193698;23;20210;-81
2022/04/12 13:55:35;;;;;;;2.72;0.70;;;33.10;43.10;;;;;;6169568;23;20247;-83
2022/04/12 13:58:01;;;;;;;2.15;0.70;;;32.60;42.00;;;;;;6193234;23;20005;-82
2022/04/12 14:00:27;;;;;;;2.65;1.00;;;32.80;42.00;;;;;;6167929;23;20035;-83
2022/04/12 14:02:53;;;;;;;1.45;0.70;;;31.90;42.10;;;;;;6207292;23;20209;-82
2022/04/12 14:05:24;;;;;;;2.95;1.00;;;31.50;43.40;;;;;;6162710;23;20037;-81
2022/04/12 14:07:53;;;;;;;2.75;0.93;;;30.80;42.70;;;;;;6162670;23;20052;-82
2022/04/12 14:10:24;;;;;;;2.78;0.90;;;30.40;43.50;;;;;;6162845;23;20017;-82
2022/04/12 14:12:50;;;;;;;6.00;0.88;;;30.40;43.20;;;;;;6162293;23;20009;-81
2022/04/12 14:15:16;;;;;;;2.28;0.93;;;30.20;43.40;;;;;;6162179;23;20286;-84
2022/04/12 14:17:41;;;;;;;1.73;0.60;;;30.30;43.20;;;;;;6136767;23;20024;-82
2022/04/12 14:20:08;;;;;;;2.03;0.70;;;30.00;42.90;;;;;;6161636;23;19997;-81
2022/04/12 14:22:35;;;;;;;4.25;1.30;;;30.10;43.70;;;;;;6162705;23;20009;-83
2022/04/12 14:25:01;;;;;;;3.15;0.75;;;30.20;43.50;;;;;;6136778;23;20287;-82
2022/04/12 14:27:28;;;;;;;2.65;0.70;;;30.00;43.70;;;;;;6138534;23;20005;-82
2022/04/12 14:29:54;;;;;;;2.42;0.63;;;29.80;44.10;;;;;;6137901;23;19994;-81
2022/04/12 14:36:25;;;;;;;1.95;0.93;;;30.40;43.60;;;;;;6162578;23;20060;-84
2022/04/12 14:38:56;;;;;;;3.08;0.60;;;30.80;43.50;;;;;;6162025;23;20013;-84
2022/04/12 14:41:25;;;;;;;2.03;0.52;;;30.80;43.70;;;;;;6137324;23;20076;-82
2022/04/12 14:43:54;;;;;;;2.58;0.73;;;30.20;43.80;;;;;;6137761;23;20009;-83
2022/04/12 14:46:20;;;;;;;2.13;0.80;;;29.50;44.20;;;;;;6137202;23;20263;-81
2022/04/12 14:48:45;;;;;;;2.78;0.50;;;29.20;44.20;;;;;;6162929;23;20096;-83
2022/04/12 14:51:11;;;;;;;2.38;0.60;;;29.90;46.00;;;;;;6161388;23;20005;-83
2022/04/12 14:53:37;;;;;;;1.77;0.70;;;30.40;43.70;;;;;;6103099;23;20006;-81
2022/04/12 14:56:09;;;;;;;3.05;0.63;;;30.60;43.50;;;;;;6129130;23;20026;-83
2022/04/12 14:58:37;;;;;;;1.73;0.70;;;30.30;43.80;;;;;;6106458;23;20057;-83
2022/04/12 15:01:04;;;;;;;2.30;0.68;;;30.10;43.60;;;;;;6079842;23;20007;-84
2022/04/12 15:03:30;;;;;;;3.63;0.65;;;30.30;44.20;;;;;;6105934;23;20227;-82
2022/04/12 15:06:16;;;;;;;2.85;0.68;;;30.40;43.50;;;;;;6103831;23;20010;-83
2022/04/12 15:08:42;;;;;;;2.65;1.05;;;30.60;43.20;;;;;;6129645;23;20126;-83
2022/04/12 15:11:13;;;;;;;5.47;0.98;;;30.80;45.10;;;;;;6104740;23;20228;-83
2022/04/12 15:13:39;;;;;;;3.90;0.88;;;30.60;43.80;;;;;;6135426;23;20013;-81
2022/04/12 15:16:06;;;;;;;4.13;0.80;;;30.60;45.20;;;;;;6156659;23;20243;-83
2022/04/12 15:18:32;;;;;;;2.65;0.77;;;30.10;43.20;;;;;;6161658;23;20100;-82
2022/04/12 15:20:59;;;;;;;1.75;0.60;;;29.30;43.90;;;;;;6159643;23;20116;-84
2022/04/12 15:23:24;;;;;;;2.78;0.90;;;29.20;45.60;;;;;;6167432;23;20009;-82
2022/04/12 15:25:50;;;;;;;4.15;0.70;;;29.10;44.90;;;;;;6105898;23;20038;-83
2022/04/12 15:28:16;;;;;;;1.80;0.60;;;28.80;45.10;;;;;;6103137;23;19995;-83
2022/04/12 15:30:42;;;;;;;3.95;1.05;;;28.80;44.80;;;;;;6093245;23;20010;-84
2022/04/12 15:33:11;;;;;;;3.75;1.10;;;28.60;45.10;;;;;;6135201;23;20522;-85
2022/04/12 15:35:37;;;;;;;3.03;1.05;;;28.40;46.00;;;;;;6159511;23;20032;-84
2022/04/12 15:38:04;;;;;;;1.73;0.85;;;28.20;46.10;;;;;;6194023;23;20024;-84
2022/04/12 15:40:31;;;;;;;3.28;1.00;;;28.10;48.60;;;;;;6168997;23;20009;-85
2022/04/12 15:42:57;;;;;;;3.33;0.90;;;28.00;46.40;;;;;;6168678;23;20019;-84
2022/04/12 15:45:25;;;;;;;4.50;1.10;;;27.70;46.40;;;;;;6168640;23;20021;-83
2022/04/12 15:47:56;;;;;;;3.03;1.17;;;27.50;47.10;;;;;;6193795;23;20073;-85
2022/04/12 15:50:23;;;;;;;4.05;1.00;;;27.10;47.00;;;;;;6168561;23;20009;-85
2022/04/12 15:52:49;;;;;;;6.47;0.88;;;26.70;47.00;;;;;;6134813;23;19998;-83
2022/04/12 15:55:17;;;;;;;3.10;0.90;;;26.30;47.80;;;;;;6133748;23;20021;-83
2022/04/12 15:57:44;;;;;;;2.08;0.90;;;26.00;48.30;;;;;;6187651;23;20019;-83
2022/04/12 16:00:11;;;;;;;2.57;1.00;;;25.70;48.20;;;;;;6233809;22;20265;-85
2022/04/12 16:02:38;;;;;;;2.42;0.90;;;25.40;49.30;;;;;;6248042;23;20059;-83
2022/04/12 16:05:05;;;;;;;6.20;1.23;;;25.30;48.90;;;;;;6222373;23;20008;-86
2022/04/12 16:07:31;;;;;;;4.43;1.00;;;25.20;49.40;;;;;;6224689;23;20005;-81
2022/04/12 16:09:57;;;;;;;2.33;0.80;;;25.10;49.40;;;;;;6223129;23;20051;-82
2022/04/12 16:12:23;;;;;;;2.20;0.80;;;25.10;49.30;;;;;;6223061;23;20016;-83
2022/04/12 16:14:50;;;;;;;2.58;0.88;;;25.20;49.20;;;;;;6223322;23;20054;-83
2022/04/12 16:17:20;;;;;;;2.22;0.77;;;25.40;49.30;;;;;;6222163;22;20023;-83
2022/04/12 16:19:49;;;;;;;4.40;1.30;;;25.60;49.30;;;;;;6223919;23;20008;-85
2022/04/12 16:22:16;;;;;;;3.13;1.10;;;25.60;49.30;;;;;;6158898;23;20033;-83
2022/04/12 16:24:43;;;;;;;4.55;1.20;;;25.80;49.20;;;;;;6218877;23;19997;-85
2022/04/12 16:27:11;;;;;;;3.13;1.10;;;25.80;49.40;;;;;;6224520;23;20029;-84
2022/04/12 16:29:37;;;;;;;2.65;1.30;;;25.90;50.20;;;;;;6224401;23;20066;-82
2022/04/12 16:32:03;;;;;;;2.88;1.17;;;26.20;49.50;;;;;;6223303;22;20024;-83
2022/04/12 16:34:29;;;;;;;4.32;1.30;;;26.40;49.40;;;;;;6199718;23;20097;-85
2022/04/12 16:36:55;;;;;;;3.75;1.25;;;26.20;50.00;;;;;;6199405;23;20005;-85
2022/04/12 16:39:20;;;;;;;4.30;1.70;;;26.20;50.00;;;;;;6251100;23;20008;-81
2022/04/12 16:41:46;;;;;;;4.45;1.88;;;26.30;50.20;;;;;;6228070;23;20012;-85
2022/04/12 16:44:12;;;;;;;3.92;1.60;;;26.20;50.70;;;;;;6198996;23;20159;-84
2022/04/12 16:46:39;;;;;;;4.72;1.50;;;26.00;50.60;;;;;;6199529;23;20072;-84
2022/04/12 16:49:08;;;;;;;;;;;25.50;51.20;;;;;;6228917;23;20116;-85
2022/04/12 16:51:34;;;;;;;4.65;2.00;;;25.40;51.70;;;;;;6187895;23;19913;-83
2022/04/12 16:54:00;;;;;;;4.72;1.50;;;25.10;52.70;;;;;;6161958;23;20017;-83
2022/04/12 16:56:26;;;;;;;2.92;1.50;;;24.70;52.60;;;;;;6162810;23;20069;-86
2022/04/12 16:58:53;;;;;;;7.85;1.92;;;24.60;53.50;;;;;;6137696;23;20068;-83
2022/04/12 17:01:19;;;;;;;5.75;1.90;;;24.60;54.10;;;;;;6137032;23;20025;-83
2022/04/12 17:03:46;;;;;;;6.78;2.10;;;24.40;53.50;;;;;;6171014;23;20041;-83
2022/04/12 17:06:11;;;;;;;7.85;2.17;;;24.40;54.00;;;;;;6177209;23;20283;-83
2022/04/12 17:08:37;;;;;;;4.10;2.28;;;24.40;54.20;;;;;;6179432;23;20430;-81
2022/04/12 17:11:03;;;;;;;4.13;2.30;;;24.30;54.50;;;;;;6173339;23;20207;-84
2022/04/12 17:13:29;;;;;;;4.60;2.53;;;24.20;55.00;;;;;;6188734;23;19993;-82
2022/04/12 17:15:56;;;;;;;6.97;2.90;;;23.90;54.90;;;;;;6185743;23;20040;-82
2022/04/12 17:18:23;;;;;;;6.95;2.40;;;23.80;55.50;;;;;;6162763;23;20006;-81
2022/04/12 17:20:48;;;;;;;6.53;2.97;;;23.50;56.70;;;;;;6185994;23;19998;-83
2022/04/12 17:23:15;;;;;;;4.50;2.53;;;23.20;57.00;;;;;;6138083;23;20059;-83
2022/04/12 17:25:41;;;;;;;5.38;3.00;;;22.90;57.80;;;;;;6187910;23;20015;-83
2022/04/12 17:28:07;;;;;;;6.35;3.03;;;22.60;57.90;;;;;;6162456;23;20012;-82
2022/04/12 17:30:34;;;;;;;6.03;3.00;;;22.50;58.50;;;;;;6162959;23;20017;-83
2022/04/12 17:33:01;;;;;;;7.88;3.30;;;22.30;59.80;;;;;;6161648;23;20068;-82
2022/04/12 17:35:26;;;;;;;9.32;3.28;;;22.10;59.70;;;;;;6162930;23;20326;-83
2022/04/12 17:37:52;;;;;;;6.60;3.20;;;21.90;60.40;;;;;;6164123;23;20010;-82
2022/04/12 17:40:19;;;;;;;7.95;3.05;;;21.80;60.40;;;;;;6189047;23;20219;-80
2022/04/12 17:42:46;;;;;;;6.40;3.08;;;21.60;61.00;;;;;;6194474;23;20341;-83
2022/04/12 17:45:15;;;;;;;6.28;3.38;;;21.40;61.90;;;;;;6250200;22;20267;-81
2022/04/12 17:47:41;;;;;;;7.97;3.35;;;21.20;61.70;;;;;;6200856;23;20004;-82
2022/04/12 17:50:08;;;;;;;6.95;3.42;;;21.10;62.10;;;;;;6199663;23;19996;-83
2022/04/12 17:52:35;;;;;;;8.03;3.40;;;20.90;62.70;;;;;;6199015;23;20069;-82
2022/04/12 17:55:03;;;;;;;8.80;3.67;;;20.80;62.90;;;;;;6224616;23;20000;-83
2022/04/12 17:57:29;;;;;;;;;;;20.70;63.30;;;;;;6199396;23;20342;-82
2022/04/12 18:00:01;;;;;;;7.82;3.30;;;20.60;63.70;;;;;;6197852;23;19907;-82
2022/04/12 18:02:30;;;;;;;6.32;3.80;;;20.40;64.20;;;;;;6198920;23;20233;-81
2022/04/12 18:04:55;;;;;;;6.35;3.60;;;20.30;64.70;;;;;;6222356;23;19993;-82
2022/04/12 18:07:25;;;;;;;6.35;3.35;;;20.20;65.60;;;;;;6198112;23;20067;-83
2022/04/12 18:09:54;;;;;;;6.07;3.55;;;20.00;65.90;;;;;;6221871;23;20012;-82
2022/04/12 18:12:21;;;;;;;7.55;3.95;;;19.90;66.00;;;;;;6198303;23;20012;-83
2022/04/12 18:14:48;;;;;;;8.60;3.95;;;19.70;66.30;;;;;;6199251;23;20005;-81
2022/04/12 18:17:14;;;;;;;6.95;3.90;;;19.70;67.00;;;;;;6224242;22;20336;-81
2022/04/12 18:19:41;;;;;;;5.88;3.42;;;19.50;67.20;;;;;;6224559;23;19996;-83
2022/04/12 18:22:09;;;;;;;8.55;4.00;;;19.40;68.00;;;;;;6224814;23;20005;-80
2022/04/12 18:24:35;;;;;;;6.93;3.70;;;19.20;68.40;;;;;;6248934;23;20008;-82
2022/04/12 18:27:03;;;;;;;7.53;3.30;;;19.10;69.20;;;;;;6249712;23;20055;-82
2022/04/12 18:29:30;;;;;;;6.15;3.33;;;19.00;69.40;;;;;;6251235;23;20265;-82
2022/04/12 18:31:56;;;;;;;5.75;2.90;;;18.90;69.80;;;;;;6198841;23;20020;-81
2022/04/12 18:34:23;;;;;;;8.40;3.13;;;18.80;70.40;;;;;;6201246;23;20044;-81
2022/04/12 18:36:51;;;;;;;;;;;18.70;70.60;;;;;;6175982;23;20287;-80
2022/04/12 18:39:17;;;;;;;6.45;3.10;;;18.70;70.70;;;;;;6250806;23;19900;-82
2022/04/12 18:41:44;;;;;;;7.20;3.15;;;18.60;71.30;;;;;;6226333;23;20003;-84
2022/04/12 18:44:10;;;;;;;7.32;3.42;;;18.60;71.40;;;;;;6249623;22;20013;-81
2022/04/12 18:46:36;;;;;;;6.95;3.40;;;18.50;71.60;;;;;;6222217;22;20020;-81
2022/04/12 18:49:03;;;;;;;8.85;3.58;;;18.40;72.00;;;;;;6222935;23;20009;-81
2022/04/12 18:51:29;;;;;;;7.97;3.40;;;18.40;72.20;;;;;;6224274;23;20001;-82
2022/04/12 18:53:55;;;;;;;6.05;3.45;;;18.30;72.60;;;;;;6250302;23;20015;-81
2022/04/12 18:56:23;;;;;;;7.50;3.65;;;18.20;72.80;;;;;;6250742;23;20314;-81
2022/04/12 18:58:50;;;;;;;;;;;18.10;74.10;;;;;;6250632;23;19999;-83
2022/04/12 19:01:17;;;;;;;9.02;4.10;;;18.00;73.60;;;;;;6245660;22;19912;-82
2022/04/12 19:03:43;;;;;;;6.60;3.60;;;18.00;73.80;;;;;;6198976;23;20008;-81
2022/04/12 19:06:15;;;;;;;7.38;3.88;;;17.90;74.10;;;;;;6197905;23;20011;-78
2022/04/12 19:08:41;;;;;;;7.53;4.00;;;17.80;74.60;;;;;;6248714;23;20028;-80
2022/04/12 19:11:09;;;;;;;6.88;4.07;;;17.70;74.80;;;;;;6224153;23;19993;-80
2022/04/12 19:13:35;;;;;;;7.68;3.63;;;17.60;75.50;;;;;;6250265;23;20015;-81
2022/04/12 19:16:02;;;;;;;9.13;3.88;;;17.50;75.50;;;;;;6173438;23;20051;-81
2022/04/12 19:18:29;;;;;;;8.05;3.55;;;17.50;75.60;;;;;;6251949;23;20009;-82
2022/04/12 19:20:59;;;;;;;8.30;4.25;;;17.50;75.90;;;;;;6176374;23;20354;-81
2022/04/12 19:23:32;;;;;;;8.02;4.40;;;17.50;75.40;;;;;;6251086;23;20190;-81
2022/04/12 19:25:58;;;;;;;6.88;3.85;;;17.40;75.60;;;;;;6224501;23;20032;-82
2022/04/12 19:28:25;;;;;;;7.38;3.60;;;17.40;75.70;;;;;;6223637;23;20008;-81
2022/04/12 19:30:51;;;;;;;7.60;3.92;;;17.30;75.70;;;;;;6173077;23;20031;-81
2022/04/12 19:33:17;;;;;;;6.53;3.35;;;17.30;76.10;;;;;;6242888;23;20012;-80
2022/04/12 19:35:43;;;;;;;5.65;2.95;;;17.20;76.50;;;;;;6243497;23;20179;-82
2022/04/12 19:38:11;;;;;;;8.68;4.15;;;17.10;77.10;;;;;;6244602;23;20015;-82
2022/04/12 19:40:38;;;;;;;6.70;4.15;;;17.00;77.20;;;;;;6194506;23;20009;-83
2022/04/12 19:43:04;;;;;;;6.45;3.42;;;16.90;77.40;;;;;;6243520;23;20000;-82
2022/04/12 19:45:30;;;;;;;6.38;3.47;;;16.80;78.20;;;;;;6245631;22;20037;-82
2022/04/12 19:47:56;;;;;;;7.05;3.20;;;16.80;78.00;;;;;;6199006;23;19997;-81
2022/04/12 19:50:22;;;;;;;6.68;3.55;;;16.70;78.40;;;;;;6198251;23;19993;-82
2022/04/12 19:52:48;;;;;;;7.22;3.03;;;16.60;78.60;;;;;;6247439;23;19997;-82